sensor_id;sensor_type;location;lat;lon;timestamp;temperature;humidity
52245;DHT22;55759;51.586;-1.758;2023-04-24T00:01:28;6.10;91.60
52245;DHT22;55759;51.586;-1.758;2023-04-24T00:03:55;6.10;91.60
52245;DHT22;55759;51.586;-1.758;2023-04-24T00:06:21;6.10;91.60
52245;DHT22;55759;51.586;-1.758;2023-04-24T00:08:49;6.00;91.50
52245;DHT22;55759;51.586;-1.758;2023-04-24T00:11:14;6.00;91.60
52245;DHT22;55759;51.586;-1.758;2023-04-24T00:13:40;5.90;91.60
52245;DHT22;55759;51.586;-1.758;2023-04-24T00:16:06;5.90;91.60
52245;DHT22;55759;51.586;-1.758;2023-04-24T00:18:31;5.90;91.60
52245;DHT22;55759;51.586;-1.758;2023-04-24T00:20:57;5.90;91.70
52245;DHT22;55759;51.586;-1.758;2023-04-24T00:23:23;5.90;91.60
52245;DHT22;55759;51.586;-1.758;2023-04-24T00:25:48;5.90;91.60
52245;DHT22;55759;51.586;-1.758;2023-04-24T00:28:14;5.90;91.60
52245;DHT22;55759;51.586;-1.758;2023-04-24T00:30:40;5.90;91.60
52245;DHT22;55759;51.586;-1.758;2023-04-24T00:33:06;5.90;91.60
52245;DHT22;55759;51.586;-1.758;2023-04-24T00:35:32;5.80;91.60
52245;DHT22;55759;51.586;-1.758;2023-04-24T00:37:57;5.80;91.60
52245;DHT22;55759;51.586;-1.758;2023-04-24T00:40:23;5.70;91.50
52245;DHT22;55759;51.586;-1.758;2023-04-24T00:42:49;5.70;91.50
52245;DHT22;55759;51.586;-1.758;2023-04-24T00:45:15;5.70;91.60
52245;DHT22;55759;51.586;-1.758;2023-04-24T00:47:41;5.70;91.70
52245;DHT22;55759;51.586;-1.758;2023-04-24T00:50:08;5.70;91.90
52245;DHT22;55759;51.586;-1.758;2023-04-24T00:52:34;5.90;92.20
52245;DHT22;55759;51.586;-1.758;2023-04-24T00:55:00;6.00;92.40
52245;DHT22;55759;51.586;-1.758;2023-04-24T00:57:26;6.10;92.30
52245;DHT22;55759;51.586;-1.758;2023-04-24T00:59:52;6.30;92.20
52245;DHT22;55759;51.586;-1.758;2023-04-24T01:02:19;6.40;91.90
52245;DHT22;55759;51.586;-1.758;2023-04-24T01:04:46;6.50;91.60
52245;DHT22;55759;51.586;-1.758;2023-04-24T01:07:12;6.60;91.40
52245;DHT22;55759;51.586;-1.758;2023-04-24T01:09:41;6.60;91.30
52245;DHT22;55759;51.586;-1.758;2023-04-24T01:12:07;6.70;91.10
52245;DHT22;55759;51.586;-1.758;2023-04-24T01:14:33;6.70;90.60
52245;DHT22;55759;51.586;-1.758;2023-04-24T01:16:59;6.80;90.60
52245;DHT22;55759;51.586;-1.758;2023-04-24T01:19:25;6.80;90.50
52245;DHT22;55759;51.586;-1.758;2023-04-24T01:21:53;6.90;90.50
52245;DHT22;55759;51.586;-1.758;2023-04-24T01:24:22;6.90;90.20
52245;DHT22;55759;51.586;-1.758;2023-04-24T01:26:48;6.90;90.00
52245;DHT22;55759;51.586;-1.758;2023-04-24T01:29:14;6.90;89.70
52245;DHT22;55759;51.586;-1.758;2023-04-24T01:31:40;6.90;89.60
52245;DHT22;55759;51.586;-1.758;2023-04-24T01:34:06;6.90;89.50
52245;DHT22;55759;51.586;-1.758;2023-04-24T01:36:34;6.90;89.50
52245;DHT22;55759;51.586;-1.758;2023-04-24T01:39:01;6.90;89.70
52245;DHT22;55759;51.586;-1.758;2023-04-24T01:41:28;7.00;89.50
52245;DHT22;55759;51.586;-1.758;2023-04-24T01:43:54;7.00;89.70
52245;DHT22;55759;51.586;-1.758;2023-04-24T01:46:20;7.00;89.60
52245;DHT22;55759;51.586;-1.758;2023-04-24T01:48:46;7.00;89.50
52245;DHT22;55759;51.586;-1.758;2023-04-24T01:51:12;7.00;89.30
52245;DHT22;55759;51.586;-1.758;2023-04-24T01:53:37;7.00;89.10
52245;DHT22;55759;51.586;-1.758;2023-04-24T01:56:03;6.90;89.20
52245;DHT22;55759;51.586;-1.758;2023-04-24T01:58:29;6.90;89.40
52245;DHT22;55759;51.586;-1.758;2023-04-24T02:00:57;6.90;89.40
52245;DHT22;55759;51.586;-1.758;2023-04-24T02:03:25;6.90;89.50
52245;DHT22;55759;51.586;-1.758;2023-04-24T02:05:51;6.90;89.50
52245;DHT22;55759;51.586;-1.758;2023-04-24T02:08:17;7.00;89.40
52245;DHT22;55759;51.586;-1.758;2023-04-24T02:10:43;7.00;89.20
52245;DHT22;55759;51.586;-1.758;2023-04-24T02:13:08;7.00;89.20
52245;DHT22;55759;51.586;-1.758;2023-04-24T02:15:34;7.10;89.30
52245;DHT22;55759;51.586;-1.758;2023-04-24T02:18:01;7.10;88.80
52245;DHT22;55759;51.586;-1.758;2023-04-24T02:20:27;7.10;88.60
52245;DHT22;55759;51.586;-1.758;2023-04-24T02:22:52;7.10;88.50
52245;DHT22;55759;51.586;-1.758;2023-04-24T02:25:18;7.10;88.50
52245;DHT22;55759;51.586;-1.758;2023-04-24T02:27:44;7.00;88.70
52245;DHT22;55759;51.586;-1.758;2023-04-24T02:30:10;7.00;88.60
52245;DHT22;55759;51.586;-1.758;2023-04-24T02:32:36;7.00;88.60
52245;DHT22;55759;51.586;-1.758;2023-04-24T02:35:02;7.00;88.70
52245;DHT22;55759;51.586;-1.758;2023-04-24T02:37:27;7.00;88.50
52245;DHT22;55759;51.586;-1.758;2023-04-24T02:39:53;7.00;88.40
52245;DHT22;55759;51.586;-1.758;2023-04-24T02:42:19;7.00;88.50
52245;DHT22;55759;51.586;-1.758;2023-04-24T02:44:45;7.00;88.30
52245;DHT22;55759;51.586;-1.758;2023-04-24T02:47:10;7.10;88.20
52245;DHT22;55759;51.586;-1.758;2023-04-24T02:49:36;7.00;88.10
52245;DHT22;55759;51.586;-1.758;2023-04-24T02:52:02;7.00;88.20
52245;DHT22;55759;51.586;-1.758;2023-04-24T02:54:27;7.10;88.10
52245;DHT22;55759;51.586;-1.758;2023-04-24T02:56:53;7.10;87.80
52245;DHT22;55759;51.586;-1.758;2023-04-24T02:59:19;7.10;87.80
52245;DHT22;55759;51.586;-1.758;2023-04-24T03:01:44;7.10;87.90
52245;DHT22;55759;51.586;-1.758;2023-04-24T03:04:10;7.00;87.90
52245;DHT22;55759;51.586;-1.758;2023-04-24T03:06:36;7.00;88.00
52245;DHT22;55759;51.586;-1.758;2023-04-24T03:09:02;6.90;88.10
52245;DHT22;55759;51.586;-1.758;2023-04-24T03:11:29;6.80;88.10
52245;DHT22;55759;51.586;-1.758;2023-04-24T03:13:54;6.70;88.20
52245;DHT22;55759;51.586;-1.758;2023-04-24T03:16:21;6.70;88.40
52245;DHT22;55759;51.586;-1.758;2023-04-24T03:18:47;6.60;88.60
52245;DHT22;55759;51.586;-1.758;2023-04-24T03:21:13;6.60;88.70
52245;DHT22;55759;51.586;-1.758;2023-04-24T03:23:38;6.60;88.70
52245;DHT22;55759;51.586;-1.758;2023-04-24T03:26:04;6.70;88.70
52245;DHT22;55759;51.586;-1.758;2023-04-24T03:28:30;6.70;88.70
52245;DHT22;55759;51.586;-1.758;2023-04-24T03:30:56;6.80;88.80
52245;DHT22;55759;51.586;-1.758;2023-04-24T03:33:22;6.80;88.70
52245;DHT22;55759;51.586;-1.758;2023-04-24T03:35:47;6.80;88.50
52245;DHT22;55759;51.586;-1.758;2023-04-24T03:38:13;6.80;88.40
52245;DHT22;55759;51.586;-1.758;2023-04-24T03:40:39;6.80;88.20
52245;DHT22;55759;51.586;-1.758;2023-04-24T03:43:04;6.90;88.20
52245;DHT22;55759;51.586;-1.758;2023-04-24T03:45:30;6.80;88.00
52245;DHT22;55759;51.586;-1.758;2023-04-24T03:47:56;6.90;87.90
52245;DHT22;55759;51.586;-1.758;2023-04-24T03:50:21;6.80;87.90
52245;DHT22;55759;51.586;-1.758;2023-04-24T03:52:47;6.70;88.00
52245;DHT22;55759;51.586;-1.758;2023-04-24T03:55:13;6.60;88.20
52245;DHT22;55759;51.586;-1.758;2023-04-24T03:57:40;6.60;88.40
52245;DHT22;55759;51.586;-1.758;2023-04-24T04:00:06;6.60;88.50
52245;DHT22;55759;51.586;-1.758;2023-04-24T04:02:32;6.50;88.60
52245;DHT22;55759;51.586;-1.758;2023-04-24T04:04:58;6.60;88.60
52245;DHT22;55759;51.586;-1.758;2023-04-24T04:07:23;6.50;88.70
52245;DHT22;55759;51.586;-1.758;2023-04-24T04:09:49;6.40;88.80
52245;DHT22;55759;51.586;-1.758;2023-04-24T04:12:15;6.40;88.90
52245;DHT22;55759;51.586;-1.758;2023-04-24T04:14:41;6.30;89.00
52245;DHT22;55759;51.586;-1.758;2023-04-24T04:17:06;6.40;89.20
52245;DHT22;55759;51.586;-1.758;2023-04-24T04:19:32;6.40;89.30
52245;DHT22;55759;51.586;-1.758;2023-04-24T04:21:58;6.40;89.20
52245;DHT22;55759;51.586;-1.758;2023-04-24T04:24:24;6.40;89.10
52245;DHT22;55759;51.586;-1.758;2023-04-24T04:26:52;6.50;89.20
52245;DHT22;55759;51.586;-1.758;2023-04-24T04:29:18;6.40;89.20
52245;DHT22;55759;51.586;-1.758;2023-04-24T04:31:47;6.40;89.20
52245;DHT22;55759;51.586;-1.758;2023-04-24T04:34:13;6.40;89.30
52245;DHT22;55759;51.586;-1.758;2023-04-24T04:36:40;6.30;89.40
52245;DHT22;55759;51.586;-1.758;2023-04-24T04:39:06;6.30;89.40
52245;DHT22;55759;51.586;-1.758;2023-04-24T04:41:32;6.20;89.50
52245;DHT22;55759;51.586;-1.758;2023-04-24T04:44:00;6.30;89.50
52245;DHT22;55759;51.586;-1.758;2023-04-24T04:46:27;6.20;89.60
52245;DHT22;55759;51.586;-1.758;2023-04-24T04:48:55;6.30;89.50
52245;DHT22;55759;51.586;-1.758;2023-04-24T04:51:22;6.20;89.50
52245;DHT22;55759;51.586;-1.758;2023-04-24T04:53:47;6.20;89.30
52245;DHT22;55759;51.586;-1.758;2023-04-24T04:56:13;6.20;89.20
52245;DHT22;55759;51.586;-1.758;2023-04-24T04:58:39;6.10;89.40
52245;DHT22;55759;51.586;-1.758;2023-04-24T05:01:04;6.00;89.40
52245;DHT22;55759;51.586;-1.758;2023-04-24T05:03:30;5.90;89.50
52245;DHT22;55759;51.586;-1.758;2023-04-24T05:05:57;5.80;89.70
52245;DHT22;55759;51.586;-1.758;2023-04-24T05:08:23;5.80;89.90
52245;DHT22;55759;51.586;-1.758;2023-04-24T05:10:48;5.70;90.00
52245;DHT22;55759;51.586;-1.758;2023-04-24T05:13:14;5.70;90.10
52245;DHT22;55759;51.586;-1.758;2023-04-24T05:15:40;5.60;90.20
52245;DHT22;55759;51.586;-1.758;2023-04-24T05:18:06;5.70;90.30
52245;DHT22;55759;51.586;-1.758;2023-04-24T05:20:32;5.60;90.40
52245;DHT22;55759;51.586;-1.758;2023-04-24T05:22:57;5.60;90.50
52245;DHT22;55759;51.586;-1.758;2023-04-24T05:25:23;5.60;90.60
52245;DHT22;55759;51.586;-1.758;2023-04-24T05:27:49;5.60;90.60
52245;DHT22;55759;51.586;-1.758;2023-04-24T05:30:14;5.50;90.70
52245;DHT22;55759;51.586;-1.758;2023-04-24T05:32:40;5.50;90.70
52245;DHT22;55759;51.586;-1.758;2023-04-24T05:35:06;5.40;90.70
52245;DHT22;55759;51.586;-1.758;2023-04-24T05:37:33;5.40;90.80
52245;DHT22;55759;51.586;-1.758;2023-04-24T05:39:58;5.40;90.90
52245;DHT22;55759;51.586;-1.758;2023-04-24T05:42:24;5.40;91.00
52245;DHT22;55759;51.586;-1.758;2023-04-24T05:44:50;5.40;91.10
52245;DHT22;55759;51.586;-1.758;2023-04-24T05:47:16;5.40;91.10
52245;DHT22;55759;51.586;-1.758;2023-04-24T05:49:41;5.50;91.20
52245;DHT22;55759;51.586;-1.758;2023-04-24T05:52:07;5.60;91.40
52245;DHT22;55759;51.586;-1.758;2023-04-24T05:54:34;5.80;91.60
52245;DHT22;55759;51.586;-1.758;2023-04-24T05:57:00;5.90;91.50
52245;DHT22;55759;51.586;-1.758;2023-04-24T05:59:29;6.10;91.30
52245;DHT22;55759;51.586;-1.758;2023-04-24T06:01:56;6.30;91.00
52245;DHT22;55759;51.586;-1.758;2023-04-24T06:04:21;6.50;90.60
52245;DHT22;55759;51.586;-1.758;2023-04-24T06:06:47;6.70;90.30
52245;DHT22;55759;51.586;-1.758;2023-04-24T06:09:16;6.80;89.90
52245;DHT22;55759;51.586;-1.758;2023-04-24T06:11:43;6.90;89.50
52245;DHT22;55759;51.586;-1.758;2023-04-24T06:14:08;6.90;89.00
52245;DHT22;55759;51.586;-1.758;2023-04-24T06:16:35;6.90;88.60
52245;DHT22;55759;51.586;-1.758;2023-04-24T06:19:00;6.90;88.30
52245;DHT22;55759;51.586;-1.758;2023-04-24T06:21:26;6.90;88.20
52245;DHT22;55759;51.586;-1.758;2023-04-24T06:23:53;6.80;88.40
52245;DHT22;55759;51.586;-1.758;2023-04-24T06:26:19;6.80;88.50
52245;DHT22;55759;51.586;-1.758;2023-04-24T06:28:45;6.90;88.40
52245;DHT22;55759;51.586;-1.758;2023-04-24T06:31:11;7.00;88.50
52245;DHT22;55759;51.586;-1.758;2023-04-24T06:33:36;7.20;87.90
52245;DHT22;55759;51.586;-1.758;2023-04-24T06:36:02;7.50;87.90
52245;DHT22;55759;51.586;-1.758;2023-04-24T06:38:29;7.80;87.30
52245;DHT22;55759;51.586;-1.758;2023-04-24T06:40:55;7.90;86.50
52245;DHT22;55759;51.586;-1.758;2023-04-24T06:43:21;8.00;85.40
52245;DHT22;55759;51.586;-1.758;2023-04-24T06:45:46;8.00;84.80
52245;DHT22;55759;51.586;-1.758;2023-04-24T06:48:12;8.10;84.90
52245;DHT22;55759;51.586;-1.758;2023-04-24T06:50:38;8.10;84.20
52245;DHT22;55759;51.586;-1.758;2023-04-24T06:53:04;8.20;84.10
52245;DHT22;55759;51.586;-1.758;2023-04-24T06:55:29;8.30;83.40
52245;DHT22;55759;51.586;-1.758;2023-04-24T06:57:55;8.40;83.80
52245;DHT22;55759;51.586;-1.758;2023-04-24T07:00:21;8.50;83.50
52245;DHT22;55759;51.586;-1.758;2023-04-24T07:02:47;8.60;83.70
52245;DHT22;55759;51.586;-1.758;2023-04-24T07:05:12;8.60;82.50
52245;DHT22;55759;51.586;-1.758;2023-04-24T07:07:38;8.40;82.10
52245;DHT22;55759;51.586;-1.758;2023-04-24T07:10:06;8.20;82.70
52245;DHT22;55759;51.586;-1.758;2023-04-24T07:12:31;8.00;83.20
52245;DHT22;55759;51.586;-1.758;2023-04-24T07:14:57;7.80;83.70
52245;DHT22;55759;51.586;-1.758;2023-04-24T07:17:23;7.70;84.50
52245;DHT22;55759;51.586;-1.758;2023-04-24T07:19:49;7.70;85.30
52245;DHT22;55759;51.586;-1.758;2023-04-24T07:22:14;7.70;85.70
52245;DHT22;55759;51.586;-1.758;2023-04-24T07:24:43;7.80;85.10
52245;DHT22;55759;51.586;-1.758;2023-04-24T07:27:09;7.80;85.30
52245;DHT22;55759;51.586;-1.758;2023-04-24T07:29:35;8.00;85.10
52245;DHT22;55759;51.586;-1.758;2023-04-24T07:32:01;8.10;85.10
52245;DHT22;55759;51.586;-1.758;2023-04-24T07:34:27;8.20;85.20
52245;DHT22;55759;51.586;-1.758;2023-04-24T07:36:52;8.30;84.80
52245;DHT22;55759;51.586;-1.758;2023-04-24T07:39:18;8.40;83.90
52245;DHT22;55759;51.586;-1.758;2023-04-24T07:41:44;8.50;83.40
52245;DHT22;55759;51.586;-1.758;2023-04-24T07:44:09;8.60;83.70
52245;DHT22;55759;51.586;-1.758;2023-04-24T07:46:35;8.90;82.50
52245;DHT22;55759;51.586;-1.758;2023-04-24T07:49:01;9.10;82.30
52245;DHT22;55759;51.586;-1.758;2023-04-24T07:51:27;9.30;81.70
52245;DHT22;55759;51.586;-1.758;2023-04-24T07:53:53;9.50;82.20
52245;DHT22;55759;51.586;-1.758;2023-04-24T07:56:20;9.60;81.40
52245;DHT22;55759;51.586;-1.758;2023-04-24T07:58:46;9.70;80.80
52245;DHT22;55759;51.586;-1.758;2023-04-24T08:01:12;9.80;80.10
52245;DHT22;55759;51.586;-1.758;2023-04-24T08:03:38;9.90;80.00
52245;DHT22;55759;51.586;-1.758;2023-04-24T08:06:04;9.90;80.80
52245;DHT22;55759;51.586;-1.758;2023-04-24T08:08:29;10.10;80.30
52245;DHT22;55759;51.586;-1.758;2023-04-24T08:10:55;10.20;79.30
52245;DHT22;55759;51.586;-1.758;2023-04-24T08:13:21;10.40;79.30
52245;DHT22;55759;51.586;-1.758;2023-04-24T08:15:47;10.70;76.80
52245;DHT22;55759;51.586;-1.758;2023-04-24T08:18:13;11.10;77.80
52245;DHT22;55759;51.586;-1.758;2023-04-24T08:20:39;11.70;75.80
52245;DHT22;55759;51.586;-1.758;2023-04-24T08:23:04;12.30;72.60
52245;DHT22;55759;51.586;-1.758;2023-04-24T08:25:30;12.70;71.30
52245;DHT22;55759;51.586;-1.758;2023-04-24T08:27:56;13.10;69.30
52245;DHT22;55759;51.586;-1.758;2023-04-24T08:30:22;13.30;68.70
52245;DHT22;55759;51.586;-1.758;2023-04-24T08:32:47;13.50;67.70
52245;DHT22;55759;51.586;-1.758;2023-04-24T08:35:13;13.60;69.50
52245;DHT22;55759;51.586;-1.758;2023-04-24T08:37:39;13.60;67.60
52245;DHT22;55759;51.586;-1.758;2023-04-24T08:40:15;13.60;66.30
52245;DHT22;55759;51.586;-1.758;2023-04-24T08:42:44;13.60;66.40
52245;DHT22;55759;51.586;-1.758;2023-04-24T08:45:12;13.60;67.00
52245;DHT22;55759;51.586;-1.758;2023-04-24T08:47:38;13.60;65.70
52245;DHT22;55759;51.586;-1.758;2023-04-24T08:50:05;13.50;65.30
52245;DHT22;55759;51.586;-1.758;2023-04-24T08:52:33;13.50;66.30
52245;DHT22;55759;51.586;-1.758;2023-04-24T08:55:00;13.50;65.50
52245;DHT22;55759;51.586;-1.758;2023-04-24T08:57:27;13.60;65.20
52245;DHT22;55759;51.586;-1.758;2023-04-24T08:59:53;13.60;66.10
52245;DHT22;55759;51.586;-1.758;2023-04-24T09:02:21;13.70;66.20
52245;DHT22;55759;51.586;-1.758;2023-04-24T09:08:10;14.00;66.10
52245;DHT22;55759;51.586;-1.758;2023-04-24T09:10:36;14.10;64.10
52245;DHT22;55759;51.586;-1.758;2023-04-24T09:13:02;14.20;64.80
52245;DHT22;55759;51.586;-1.758;2023-04-24T09:15:28;14.30;65.90
52245;DHT22;55759;51.586;-1.758;2023-04-24T09:17:54;14.30;64.80
52245;DHT22;55759;51.586;-1.758;2023-04-24T09:20:20;14.30;64.80
52245;DHT22;55759;51.586;-1.758;2023-04-24T09:22:46;14.30;64.70
52245;DHT22;55759;51.586;-1.758;2023-04-24T09:25:12;14.40;66.00
52245;DHT22;55759;51.586;-1.758;2023-04-24T09:27:43;14.70;64.50
52245;DHT22;55759;51.586;-1.758;2023-04-24T09:30:10;15.10;64.60
52245;DHT22;55759;51.586;-1.758;2023-04-24T09:32:36;15.30;63.10
52245;DHT22;55759;51.586;-1.758;2023-04-24T09:37:39;15.40;59.60
52245;DHT22;55759;51.586;-1.758;2023-04-24T09:40:16;15.20;60.00
52245;DHT22;55759;51.586;-1.758;2023-04-24T09:42:55;15.10;62.30
52245;DHT22;55759;51.586;-1.758;2023-04-24T09:45:27;14.90;59.90
52245;DHT22;55759;51.586;-1.758;2023-04-24T09:47:53;14.80;60.50
52245;DHT22;55759;51.586;-1.758;2023-04-24T09:50:22;14.70;60.60
52245;DHT22;55759;51.586;-1.758;2023-04-24T09:52:57;14.60;60.30
52245;DHT22;55759;51.586;-1.758;2023-04-24T09:55:23;14.30;60.60
52245;DHT22;55759;51.586;-1.758;2023-04-24T10:00:18;13.80;61.70
52245;DHT22;55759;51.586;-1.758;2023-04-24T10:02:44;13.60;62.70
52245;DHT22;55759;51.586;-1.758;2023-04-24T10:05:11;13.50;63.40
52245;DHT22;55759;51.586;-1.758;2023-04-24T10:07:43;13.60;64.30
52245;DHT22;55759;51.586;-1.758;2023-04-24T10:10:09;13.80;63.10
52245;DHT22;55759;51.586;-1.758;2023-04-24T10:12:36;14.20;62.50
52245;DHT22;55759;51.586;-1.758;2023-04-24T10:15:02;14.50;61.30
52245;DHT22;55759;51.586;-1.758;2023-04-24T10:17:28;14.80;60.20
52245;DHT22;55759;51.586;-1.758;2023-04-24T10:19:55;14.80;59.40
52245;DHT22;55759;51.586;-1.758;2023-04-24T10:22:21;14.70;60.70
52245;DHT22;55759;51.586;-1.758;2023-04-24T10:24:47;14.50;61.20
52245;DHT22;55759;51.586;-1.758;2023-04-24T10:27:14;14.20;61.40
52245;DHT22;55759;51.586;-1.758;2023-04-24T10:29:41;13.90;62.40
52245;DHT22;55759;51.586;-1.758;2023-04-24T10:32:09;13.60;62.90
52245;DHT22;55759;51.586;-1.758;2023-04-24T10:34:36;13.20;63.60
52245;DHT22;55759;51.586;-1.758;2023-04-24T10:37:02;13.10;64.40
52245;DHT22;55759;51.586;-1.758;2023-04-24T10:39:29;12.80;65.20
52245;DHT22;55759;51.586;-1.758;2023-04-24T10:41:56;12.70;66.70
52245;DHT22;55759;51.586;-1.758;2023-04-24T10:44:24;12.60;67.60
52245;DHT22;55759;51.586;-1.758;2023-04-24T10:46:55;12.40;68.90
52245;DHT22;55759;51.586;-1.758;2023-04-24T10:49:29;12.10;69.40
52245;DHT22;55759;51.586;-1.758;2023-04-24T10:52:00;11.90;70.20
52245;DHT22;55759;51.586;-1.758;2023-04-24T10:54:28;11.70;72.20
52245;DHT22;55759;51.586;-1.758;2023-04-24T10:59:49;11.40;74.40
52245;DHT22;55759;51.586;-1.758;2023-04-24T11:02:17;11.30;75.10
52245;DHT22;55759;51.586;-1.758;2023-04-24T11:04:43;11.10;76.00
52245;DHT22;55759;51.586;-1.758;2023-04-24T11:07:09;11.10;77.00
52245;DHT22;55759;51.586;-1.758;2023-04-24T11:09:36;10.90;77.70
52245;DHT22;55759;51.586;-1.758;2023-04-24T11:12:07;10.90;78.40
52245;DHT22;55759;51.586;-1.758;2023-04-24T11:15:10;10.90;79.00
52245;DHT22;55759;51.586;-1.758;2023-04-24T11:17:42;10.80;79.70
52245;DHT22;55759;51.586;-1.758;2023-04-24T11:20:11;10.80;80.70
52245;DHT22;55759;51.586;-1.758;2023-04-24T11:22:38;10.90;80.40
52245;DHT22;55759;51.586;-1.758;2023-04-24T11:25:08;10.80;80.50
52245;DHT22;55759;51.586;-1.758;2023-04-24T11:27:42;10.80;80.20
52245;DHT22;55759;51.586;-1.758;2023-04-24T11:30:10;10.70;80.70
52245;DHT22;55759;51.586;-1.758;2023-04-24T11:32:40;10.60;80.80
52245;DHT22;55759;51.586;-1.758;2023-04-24T11:35:12;10.60;80.10
52245;DHT22;55759;51.586;-1.758;2023-04-24T11:37:40;10.60;81.10
52245;DHT22;55759;51.586;-1.758;2023-04-24T11:40:08;10.60;80.60
52245;DHT22;55759;51.586;-1.758;2023-04-24T11:42:36;10.50;80.90
52245;DHT22;55759;51.586;-1.758;2023-04-24T11:45:10;10.50;80.60
52245;DHT22;55759;51.586;-1.758;2023-04-24T11:47:37;10.50;80.00
52245;DHT22;55759;51.586;-1.758;2023-04-24T11:50:03;10.50;80.20
52245;DHT22;55759;51.586;-1.758;2023-04-24T11:52:30;10.40;79.80
52245;DHT22;55759;51.586;-1.758;2023-04-24T11:54:56;10.30;79.90
52245;DHT22;55759;51.586;-1.758;2023-04-24T11:57:24;10.20;80.90
52245;DHT22;55759;51.586;-1.758;2023-04-24T11:59:51;10.10;81.20
52245;DHT22;55759;51.586;-1.758;2023-04-24T12:02:24;10.10;81.50
52245;DHT22;55759;51.586;-1.758;2023-04-24T12:04:51;10.00;81.90
52245;DHT22;55759;51.586;-1.758;2023-04-24T12:07:17;9.90;81.90
52245;DHT22;55759;51.586;-1.758;2023-04-24T12:09:47;9.90;82.30
52245;DHT22;55759;51.586;-1.758;2023-04-24T12:12:14;9.60;81.70
52245;DHT22;55759;51.586;-1.758;2023-04-24T12:14:48;9.50;83.10
52245;DHT22;55759;51.586;-1.758;2023-04-24T12:17:15;9.40;82.80
52245;DHT22;55759;51.586;-1.758;2023-04-24T12:19:48;9.30;83.40
52245;DHT22;55759;51.586;-1.758;2023-04-24T12:22:14;9.20;84.40
52245;DHT22;55759;51.586;-1.758;2023-04-24T12:24:59;9.20;84.70
52245;DHT22;55759;51.586;-1.758;2023-04-24T12:27:27;9.20;85.30
52245;DHT22;55759;51.586;-1.758;2023-04-24T12:29:57;9.20;85.80
52245;DHT22;55759;51.586;-1.758;2023-04-24T12:32:24;9.20;85.10
52245;DHT22;55759;51.586;-1.758;2023-04-24T12:34:53;9.10;85.30
52245;DHT22;55759;51.586;-1.758;2023-04-24T12:37:19;9.10;85.60
52245;DHT22;55759;51.586;-1.758;2023-04-24T12:40:10;9.10;86.10
52245;DHT22;55759;51.586;-1.758;2023-04-24T12:42:43;9.00;85.70
52245;DHT22;55759;51.586;-1.758;2023-04-24T12:45:09;8.90;85.50
52245;DHT22;55759;51.586;-1.758;2023-04-24T12:47:38;8.70;85.80
52245;DHT22;55759;51.586;-1.758;2023-04-24T12:50:04;8.60;86.20
52245;DHT22;55759;51.586;-1.758;2023-04-24T12:52:31;8.70;86.80
52245;DHT22;55759;51.586;-1.758;2023-04-24T12:54:59;8.70;87.00
52245;DHT22;55759;51.586;-1.758;2023-04-24T12:57:27;8.70;87.10
52245;DHT22;55759;51.586;-1.758;2023-04-24T12:59:55;8.80;87.10
52245;DHT22;55759;51.586;-1.758;2023-04-24T13:02:22;8.80;87.20
52245;DHT22;55759;51.586;-1.758;2023-04-24T13:04:49;8.90;87.40
52245;DHT22;55759;51.586;-1.758;2023-04-24T13:07:15;8.80;86.70
52245;DHT22;55759;51.586;-1.758;2023-04-24T13:09:41;8.70;86.80
52245;DHT22;55759;51.586;-1.758;2023-04-24T13:12:08;8.80;87.20
52245;DHT22;55759;51.586;-1.758;2023-04-24T13:14:34;8.70;87.30
52245;DHT22;55759;51.586;-1.758;2023-04-24T13:17:00;8.70;87.30
52245;DHT22;55759;51.586;-1.758;2023-04-24T13:19:26;8.60;87.40
52245;DHT22;55759;51.586;-1.758;2023-04-24T13:21:55;8.60;87.50
52245;DHT22;55759;51.586;-1.758;2023-04-24T13:24:22;8.60;87.40
52245;DHT22;55759;51.586;-1.758;2023-04-24T13:26:51;8.60;87.40
52245;DHT22;55759;51.586;-1.758;2023-04-24T13:29:17;8.60;87.40
52245;DHT22;55759;51.586;-1.758;2023-04-24T13:31:43;8.60;87.80
52245;DHT22;55759;51.586;-1.758;2023-04-24T13:34:08;8.70;87.70
52245;DHT22;55759;51.586;-1.758;2023-04-24T13:36:34;8.90;87.50
52245;DHT22;55759;51.586;-1.758;2023-04-24T13:39:01;8.90;87.00
52245;DHT22;55759;51.586;-1.758;2023-04-24T13:41:26;8.90;87.50
52245;DHT22;55759;51.586;-1.758;2023-04-24T13:43:52;8.90;87.40
52245;DHT22;55759;51.586;-1.758;2023-04-24T13:46:18;9.00;88.00
52245;DHT22;55759;51.586;-1.758;2023-04-24T13:48:43;9.10;88.00
52245;DHT22;55759;51.586;-1.758;2023-04-24T13:51:09;9.30;87.70
52245;DHT22;55759;51.586;-1.758;2023-04-24T13:53:35;9.50;87.40
52245;DHT22;55759;51.586;-1.758;2023-04-24T13:56:04;9.60;86.50
52245;DHT22;55759;51.586;-1.758;2023-04-24T13:58:31;9.90;86.50
52245;DHT22;55759;51.586;-1.758;2023-04-24T14:00:57;10.10;85.60
52245;DHT22;55759;51.586;-1.758;2023-04-24T14:03:23;10.30;85.00
52245;DHT22;55759;51.586;-1.758;2023-04-24T14:05:49;10.60;84.70
52245;DHT22;55759;51.586;-1.758;2023-04-24T14:08:15;10.60;83.40
52245;DHT22;55759;51.586;-1.758;2023-04-24T14:10:42;10.70;83.10
52245;DHT22;55759;51.586;-1.758;2023-04-24T14:13:08;10.50;81.60
52245;DHT22;55759;51.586;-1.758;2023-04-24T14:15:35;10.30;82.00
52245;DHT22;55759;51.586;-1.758;2023-04-24T14:18:01;10.20;83.00
52245;DHT22;55759;51.586;-1.758;2023-04-24T14:20:28;10.20;82.80
52245;DHT22;55759;51.586;-1.758;2023-04-24T14:22:54;10.30;83.10
52245;DHT22;55759;51.586;-1.758;2023-04-24T14:25:20;10.40;83.20
52245;DHT22;55759;51.586;-1.758;2023-04-24T14:27:48;10.40;82.70
52245;DHT22;55759;51.586;-1.758;2023-04-24T14:30:14;10.40;82.00
52245;DHT22;55759;51.586;-1.758;2023-04-24T14:32:40;10.40;81.40
52245;DHT22;55759;51.586;-1.758;2023-04-24T14:35:07;10.60;80.60
52245;DHT22;55759;51.586;-1.758;2023-04-24T14:37:36;11.10;80.50
52245;DHT22;55759;51.586;-1.758;2023-04-24T14:40:02;11.60;78.70
52245;DHT22;55759;51.586;-1.758;2023-04-24T14:42:29;12.20;78.10
52245;DHT22;55759;51.586;-1.758;2023-04-24T14:44:55;12.70;76.00
52245;DHT22;55759;51.586;-1.758;2023-04-24T14:47:21;12.90;73.20
52245;DHT22;55759;51.586;-1.758;2023-04-24T14:49:48;13.10;73.90
52245;DHT22;55759;51.586;-1.758;2023-04-24T14:52:16;13.60;73.20
52245;DHT22;55759;51.586;-1.758;2023-04-24T14:54:43;14.00;71.60
52245;DHT22;55759;51.586;-1.758;2023-04-24T14:57:08;14.20;69.70
52245;DHT22;55759;51.586;-1.758;2023-04-24T14:59:34;14.20;69.90
52245;DHT22;55759;51.586;-1.758;2023-04-24T15:02:00;14.10;68.60
52245;DHT22;55759;51.586;-1.758;2023-04-24T15:04:27;13.80;67.10
52245;DHT22;55759;51.586;-1.758;2023-04-24T15:06:54;13.50;67.60
52245;DHT22;55759;51.586;-1.758;2023-04-24T15:09:21;13.10;68.60
52245;DHT22;55759;51.586;-1.758;2023-04-24T15:11:47;12.70;69.80
52245;DHT22;55759;51.586;-1.758;2023-04-24T15:14:13;12.30;71.90
52245;DHT22;55759;51.586;-1.758;2023-04-24T15:16:39;11.80;71.50
52245;DHT22;55759;51.586;-1.758;2023-04-24T15:19:05;11.10;73.40
52245;DHT22;55759;51.586;-1.758;2023-04-24T15:21:31;10.70;74.50
52245;DHT22;55759;51.586;-1.758;2023-04-24T15:23:57;10.50;74.80
52245;DHT22;55759;51.586;-1.758;2023-04-24T15:26:24;10.60;75.10
52245;DHT22;55759;51.586;-1.758;2023-04-24T15:28:51;10.80;74.80
52245;DHT22;55759;51.586;-1.758;2023-04-24T15:31:20;10.90;73.50
52245;DHT22;55759;51.586;-1.758;2023-04-24T15:33:47;10.70;73.50